createdAt,value
2019-04-16T00:00:25.856Z,98.40
2019-04-16T00:02:55.766Z,98.71
2019-04-16T00:05:27.764Z,99.06
2019-04-16T00:08:09.908Z,99.42
2019-04-16T00:10:43.791Z,99.72
2019-04-16T00:13:19.479Z,99.92
2019-04-16T00:15:47.760Z,100.00
2019-04-16T00:18:18.597Z,100.00
2019-04-16T00:20:50.066Z,100.00
2019-04-16T00:23:19.977Z,100.00
2019-04-16T00:25:48.238Z,100.00
2019-04-16T00:28:16.528Z,100.00
2019-04-16T00:30:44.865Z,100.00
2019-04-16T00:33:13.139Z,100.00
2019-04-16T00:35:46.421Z,100.00
2019-04-16T00:38:11.681Z,100.00
2019-04-16T00:40:39.942Z,100.00
2019-04-16T00:43:08.224Z,100.00
2019-04-16T00:45:36.506Z,100.00
2019-04-16T00:48:04.799Z,100.00
2019-04-16T00:50:33.061Z,100.00
2019-04-16T00:53:01.335Z,100.00
2019-04-16T00:55:29.621Z,100.00
2019-04-16T00:57:58.061Z,100.00
2019-04-16T01:00:27.742Z,100.00
2019-04-16T01:02:56.480Z,100.00
2019-04-16T01:05:24.763Z,100.00
2019-04-16T01:07:53.032Z,100.00
2019-04-16T01:10:21.307Z,100.00
2019-04-16T01:12:49.585Z,100.00
2019-04-16T01:15:17.868Z,100.00
2019-04-16T01:17:46.122Z,100.00
2019-04-16T01:20:14.411Z,100.00
2019-04-16T01:22:46.550Z,100.00
2019-04-16T01:25:12.693Z,100.00
2019-04-16T01:27:42.605Z,100.00
2019-04-16T01:30:13.160Z,100.00
2019-04-16T01:32:48.486Z,100.00
2019-04-16T01:35:30.139Z,100.00
2019-04-16T01:38:15.689Z,100.00
2019-04-16T01:40:47.352Z,100.00
2019-04-16T01:43:16.030Z,100.00
2019-04-16T01:45:44.330Z,100.00
2019-04-16T01:48:12.631Z,100.00
2019-04-16T01:50:43.518Z,100.00
2019-04-16T01:53:11.031Z,100.00
2019-04-16T01:55:42.303Z,100.00
2019-04-16T01:58:09.331Z,100.00
2019-04-16T02:00:39.193Z,100.00
2019-04-16T02:03:07.683Z,100.00
2019-04-16T02:05:35.960Z,100.00
2019-04-16T02:08:04.234Z,100.00
2019-04-16T02:10:35.460Z,100.00
2019-04-16T02:13:03.945Z,100.00
2019-04-16T02:15:32.201Z,100.00
2019-04-16T02:18:00.500Z,100.00
2019-04-16T02:20:28.773Z,100.00
2019-04-16T02:22:57.041Z,100.00
2019-04-16T02:25:25.296Z,100.00
2019-04-16T02:27:54.257Z,100.00
2019-04-16T02:30:23.563Z,100.00
2019-04-16T02:32:51.840Z,100.00
2019-04-16T02:35:20.221Z,100.00
2019-04-16T02:37:48.510Z,100.00
2019-04-16T02:40:18.743Z,100.00
2019-04-16T02:42:46.766Z,100.00
2019-04-16T02:45:15.047Z,100.00
2019-04-16T02:47:43.336Z,100.00
2019-04-16T02:50:13.576Z,100.00
2019-04-16T02:52:50.014Z,100.00
2019-04-16T02:55:26.777Z,100.00
2019-04-16T02:58:00.002Z,100.00
2019-04-16T03:00:31.257Z,100.00
2019-04-16T03:03:09.916Z,100.00
2019-04-16T03:05:40.418Z,100.00
2019-04-16T03:08:08.691Z,100.00
2019-04-16T03:10:36.966Z,100.00
2019-04-16T03:13:05.270Z,100.00
2019-04-16T03:15:51.152Z,100.00
2019-04-16T03:18:21.065Z,100.00
2019-04-16T03:20:49.337Z,100.00
2019-04-16T03:23:17.617Z,100.00
2019-04-16T03:25:45.883Z,100.00
2019-04-16T03:28:14.163Z,100.00
2019-04-16T03:30:42.946Z,100.00
2019-04-16T03:33:14.338Z,100.00
2019-04-16T03:35:41.280Z,100.00
2019-04-16T03:38:09.621Z,100.00
2019-04-16T03:40:37.959Z,100.00
2019-04-16T03:43:06.249Z,100.00
2019-04-16T03:45:34.516Z,100.00
2019-04-16T03:48:02.791Z,100.00
2019-04-16T03:50:32.125Z,100.00
2019-04-16T03:53:00.517Z,100.00
2019-04-16T03:55:28.791Z,100.00
2019-04-16T03:57:57.089Z,100.00
2019-04-16T04:00:25.396Z,100.00
2019-04-16T04:02:55.051Z,100.00
2019-04-16T04:05:23.672Z,100.00
2019-04-16T04:07:55.083Z,100.00
2019-04-16T04:10:30.525Z,100.00
2019-04-16T04:12:51.927Z,100.00
2019-04-16T04:15:20.203Z,100.00
2019-04-16T04:17:48.795Z,100.00
2019-04-16T04:20:18.425Z,100.00
2019-04-16T04:22:47.106Z,100.00
2019-04-16T04:25:15.376Z,100.00
2019-04-16T04:27:46.697Z,100.00
2019-04-16T04:30:14.046Z,100.00
2019-04-16T04:32:42.994Z,100.00
2019-04-16T04:35:11.403Z,100.00
2019-04-16T04:37:39.740Z,100.00
2019-04-16T04:40:08.092Z,100.00
2019-04-16T04:42:36.384Z,100.00
2019-04-16T04:45:09.043Z,100.00
2019-04-16T04:47:36.723Z,100.00
2019-04-16T04:50:08.327Z,100.00
2019-04-16T04:52:36.619Z,100.00
2019-04-16T04:55:05.661Z,100.00
2019-04-16T04:57:33.930Z,100.00
2019-04-16T05:00:02.271Z,100.00
2019-04-16T05:02:30.537Z,100.00
2019-04-16T05:05:06.381Z,100.00
2019-04-16T05:07:34.641Z,100.00
2019-04-16T05:10:04.604Z,100.00
2019-04-16T05:12:33.482Z,100.00
2019-04-16T05:15:03.902Z,100.00
2019-04-16T05:17:31.747Z,100.00
2019-04-16T05:20:00.001Z,100.00
2019-04-16T05:22:28.282Z,100.00
2019-04-16T05:25:00.886Z,100.00
2019-04-16T05:27:29.203Z,100.00
2019-04-16T05:29:56.546Z,100.00
2019-04-16T05:32:26.010Z,100.00
2019-04-16T05:34:54.687Z,100.00
2019-04-16T05:37:22.944Z,100.00
2019-04-16T05:39:51.228Z,100.00
2019-04-16T05:42:19.590Z,100.00
2019-04-16T05:44:49.557Z,100.00
2019-04-16T05:47:18.349Z,100.00
2019-04-16T05:49:46.604Z,100.00
2019-04-16T05:52:14.883Z,100.00
2019-04-16T05:55:02.605Z,100.00
2019-04-16T05:57:32.504Z,100.00
2019-04-16T06:00:03.342Z,100.00
2019-04-16T06:02:34.810Z,100.00
2019-04-16T06:05:03.082Z,100.00
2019-04-16T06:07:31.354Z,100.00
2019-04-16T06:09:59.651Z,100.00
2019-04-16T06:12:32.476Z,100.00
2019-04-16T06:15:09.952Z,100.00
2019-04-16T06:17:51.616Z,100.00
2019-04-16T06:20:21.735Z,100.00
2019-04-16T06:23:03.709Z,100.00
2019-04-16T06:25:33.599Z,99.69
2019-04-16T06:28:06.392Z,99.10
2019-04-16T06:30:44.971Z,98.72
2019-04-16T06:33:14.942Z,98.53
2019-04-16T06:35:59.727Z,98.02
2019-04-16T06:38:32.165Z,97.84
2019-04-16T06:41:03.396Z,97.51
2019-04-16T06:43:33.981Z,96.77
2019-04-16T06:46:05.435Z,97.01
2019-04-16T06:48:38.443Z,96.13
2019-04-16T06:51:24.316Z,95.71
2019-04-16T06:53:57.560Z,95.15
2019-04-16T06:56:27.523Z,94.92
2019-04-16T06:59:00.075Z,94.23
2019-04-16T07:01:48.134Z,93.81
2019-04-16T07:04:18.051Z,93.60
2019-04-16T07:06:47.964Z,92.54
2019-04-16T07:09:41.068Z,92.41
2019-04-16T07:12:01.631Z,91.81
2019-04-16T07:14:29.907Z,90.99
2019-04-16T07:17:00.215Z,90.70
2019-04-16T07:19:28.190Z,89.94
2019-04-16T07:21:56.460Z,89.79
2019-04-16T07:24:30.096Z,89.58
2019-04-16T07:26:56.631Z,89.13
2019-04-16T07:29:32.684Z,88.53
2019-04-16T07:32:12.585Z,88.42
2019-04-16T07:34:54.409Z,88.18
2019-04-16T07:37:24.311Z,86.99
2019-04-16T07:39:57.152Z,86.42
2019-04-16T07:42:27.099Z,86.34
2019-04-16T07:44:57.010Z,85.76
2019-04-16T07:47:42.816Z,85.38
2019-04-16T07:50:13.015Z,84.76
2019-04-16T07:53:00.998Z,83.73
2019-04-16T07:55:30.911Z,83.46
2019-04-16T07:57:59.179Z,82.82
2019-04-16T08:00:27.517Z,83.44
2019-04-16T08:02:55.803Z,82.22
2019-04-16T08:05:27.493Z,82.54
2019-04-16T08:07:54.147Z,82.76
2019-04-16T08:10:22.391Z,82.53
2019-04-16T08:12:52.299Z,81.81
2019-04-16T08:15:20.558Z,80.44
2019-04-16T08:17:48.830Z,80.56
2019-04-16T08:20:19.778Z,80.03
2019-04-16T08:22:48.226Z,78.91
2019-04-16T08:25:18.101Z,79.78
2019-04-16T08:27:47.312Z,80.12
2019-04-16T08:30:16.509Z,79.99
2019-04-16T08:32:45.748Z,79.33
2019-04-16T08:35:14.780Z,77.67
2019-04-16T08:37:49.285Z,77.92
2019-04-16T08:40:13.201Z,77.02
2019-04-16T08:42:44.824Z,75.83
2019-04-16T08:45:11.537Z,75.95
2019-04-16T08:47:44.558Z,76.40
2019-04-16T08:50:11.771Z,77.29
2019-04-16T08:52:41.766Z,75.78
2019-04-16T08:55:09.995Z,76.25
2019-04-16T08:57:38.282Z,75.58
2019-04-16T09:00:14.076Z,75.07
2019-04-16T09:02:38.847Z,74.05
2019-04-16T09:05:11.070Z,73.87
2019-04-16T09:07:39.653Z,73.49
2019-04-16T09:10:18.452Z,73.41
2019-04-16T09:12:50.764Z,72.39
2019-04-16T09:15:17.189Z,71.32
2019-04-16T09:17:47.101Z,71.71
2019-04-16T09:20:22.949Z,72.10
2019-04-16T09:22:53.542Z,72.51
2019-04-16T09:25:36.186Z,72.51
2019-04-16T09:28:23.799Z,71.86
2019-04-16T09:30:40.311Z,71.47
2019-04-16T09:33:12.604Z,71.19
2019-04-16T09:35:44.950Z,70.13
2019-04-16T09:38:22.944Z,68.52
2019-04-16T09:40:55.958Z,70.19
2019-04-16T09:43:31.625Z,70.07
2019-04-16T09:46:10.107Z,69.48
2019-04-16T09:48:34.237Z,69.50
2019-04-16T09:50:59.952Z,69.45
2019-04-16T09:53:33.929Z,69.86
2019-04-16T09:55:59.846Z,68.98
2019-04-16T09:58:28.115Z,67.87
2019-04-16T10:01:06.782Z,68.75
2019-04-16T10:03:36.126Z,67.90
2019-04-16T10:06:05.751Z,68.61
2019-04-16T10:08:34.231Z,66.84
2019-04-16T10:11:05.792Z,65.26
2019-04-16T10:13:35.890Z,66.20
2019-04-16T10:16:02.530Z,65.11
2019-04-16T10:18:34.409Z,65.50
2019-04-16T10:21:01.788Z,65.98
2019-04-16T10:23:34.376Z,65.27
2019-04-16T10:26:02.840Z,64.95
2019-04-16T10:28:34.022Z,65.04
2019-04-16T10:31:02.736Z,63.69
2019-04-16T10:33:31.025Z,63.97
2019-04-16T10:36:01.106Z,63.97
2019-04-16T10:38:33.359Z,62.34
2019-04-16T10:41:09.163Z,62.60
2019-04-16T10:43:44.661Z,62.68
2019-04-16T10:46:13.558Z,61.06
2019-04-16T10:48:49.141Z,61.94
2019-04-16T10:51:19.512Z,61.62
2019-04-16T10:53:49.432Z,61.01
2019-04-16T10:56:35.272Z,61.25
2019-04-16T10:59:07.865Z,60.39
2019-04-16T11:01:46.384Z,60.31
2019-04-16T11:04:16.327Z,60.15
2019-04-16T11:06:48.918Z,59.77
2019-04-16T11:09:17.196Z,59.32
2019-04-16T11:11:45.571Z,59.32
2019-04-16T11:14:13.819Z,58.55
2019-04-16T11:16:43.808Z,58.57
2019-04-16T11:19:12.040Z,58.06
2019-04-16T11:21:40.290Z,57.45
2019-04-16T11:24:08.574Z,55.26
2019-04-16T11:26:37.013Z,54.38
2019-04-16T11:29:05.454Z,54.18
2019-04-16T11:31:33.831Z,54.82
2019-04-16T11:34:03.781Z,54.62
2019-04-16T11:36:32.087Z,54.62
2019-04-16T11:39:00.442Z,54.22
2019-04-16T11:41:28.707Z,50.06
2019-04-16T11:43:56.989Z,51.92
2019-04-16T11:46:25.264Z,52.70
2019-04-16T11:48:53.547Z,50.79
2019-04-16T11:51:21.854Z,48.56
2019-04-16T11:53:50.116Z,45.88
2019-04-16T11:56:18.417Z,47.20
2019-04-16T11:58:46.722Z,46.94
2019-04-16T12:01:17.141Z,46.83
2019-04-16T12:04:02.592Z,48.56
2019-04-16T12:06:44.620Z,48.81
2019-04-16T12:09:30.753Z,47.91
2019-04-16T12:12:00.664Z,47.19
2019-04-16T12:14:34.516Z,48.16
2019-04-16T12:17:04.846Z,48.29
2019-04-16T12:19:51.346Z,47.43
2019-04-16T12:22:37.232Z,47.64
2019-04-16T12:25:16.516Z,46.47
2019-04-16T12:27:46.407Z,46.09
2019-04-16T12:30:25.069Z,46.80
2019-04-16T12:33:07.507Z,46.17
2019-04-16T12:35:38.283Z,46.88
2019-04-16T12:38:12.271Z,45.38
2019-04-16T12:40:45.693Z,46.22
2019-04-16T12:43:31.523Z,43.74
2019-04-16T12:46:17.785Z,45.59
2019-04-16T12:48:50.646Z,45.10
2019-04-16T12:51:20.520Z,44.69
2019-04-16T12:53:53.303Z,44.38
2019-04-16T12:56:41.146Z,44.72
2019-04-16T12:59:22.073Z,44.10
2019-04-16T13:01:56.229Z,43.78
2019-04-16T13:04:40.922Z,44.40
2019-04-16T13:07:10.844Z,45.15
2019-04-16T13:09:40.757Z,43.65
2019-04-16T13:12:26.906Z,43.96
2019-04-16T13:15:00.983Z,41.75
2019-04-16T13:17:31.384Z,42.29
2019-04-16T13:20:06.977Z,41.33
2019-04-16T13:22:39.808Z,41.96
2019-04-16T13:25:10.892Z,42.22
2019-04-16T13:27:40.541Z,41.62
2019-04-16T13:30:09.873Z,41.66
2019-04-16T13:32:38.167Z,41.71
2019-04-16T13:35:06.817Z,40.83
2019-04-16T13:37:37.884Z,42.41
2019-04-16T13:40:09.905Z,41.85
2019-04-16T13:42:38.185Z,42.04
2019-04-16T13:45:22.030Z,41.28
2019-04-16T13:47:54.423Z,38.20
2019-04-16T13:50:35.984Z,37.82
2019-04-16T13:53:18.445Z,37.82
2019-04-16T13:55:54.364Z,37.56
2019-04-16T13:58:39.057Z,37.85
2019-04-16T14:01:24.071Z,37.90
2019-04-16T14:03:56.139Z,38.34
2019-04-16T14:06:22.339Z,38.90
2019-04-16T14:08:50.624Z,39.38
2019-04-16T14:11:19.858Z,40.22
2019-04-16T14:13:50.304Z,40.13
2019-04-16T14:16:18.603Z,39.66
2019-04-16T14:18:46.886Z,39.12
2019-04-16T14:21:15.167Z,39.08
2019-04-16T14:23:43.443Z,37.50
2019-04-16T14:26:11.726Z,38.25
2019-04-16T14:28:51.198Z,37.81
2019-04-16T14:31:09.983Z,38.10
2019-04-16T14:33:46.294Z,36.78
2019-04-16T14:36:14.736Z,35.74
2019-04-16T14:38:47.323Z,35.17
2019-04-16T14:41:16.182Z,34.86
2019-04-16T14:43:46.443Z,34.29
2019-04-16T14:46:14.801Z,34.35
2019-04-16T14:48:46.457Z,36.81
2019-04-16T14:51:13.083Z,34.65
2019-04-16T14:53:42.993Z,34.63
2019-04-16T14:56:12.903Z,34.85
2019-04-16T14:58:58.744Z,35.60
2019-04-16T15:01:37.340Z,35.23
2019-04-16T15:04:10.168Z,35.23
2019-04-16T15:06:56.774Z,35.41
2019-04-16T15:09:26.578Z,34.67
2019-04-16T15:12:14.593Z,33.93
2019-04-16T15:14:46.943Z,35.17
2019-04-16T15:17:19.537Z,34.70
2019-04-16T15:19:49.455Z,34.34
2019-04-16T15:22:19.365Z,34.29
2019-04-16T15:25:01.139Z,33.83
2019-04-16T15:27:39.990Z,34.58
2019-04-16T15:30:12.761Z,35.83
2019-04-16T15:32:42.661Z,35.12
2019-04-16T15:35:21.497Z,35.79
2019-04-16T15:37:51.411Z,35.68
2019-04-16T15:40:30.005Z,34.90
2019-04-16T15:42:59.924Z,35.55
2019-04-16T15:45:29.954Z,35.46
2019-04-16T15:48:05.925Z,35.61
2019-04-16T15:50:38.456Z,36.39
2019-04-16T15:53:08.368Z,36.83
2019-04-16T15:55:40.963Z,37.29
2019-04-16T15:58:13.833Z,37.21
2019-04-16T16:00:43.776Z,36.91
2019-04-16T16:03:16.597Z,37.63
2019-04-16T16:05:46.507Z,37.72
2019-04-16T16:08:19.346Z,37.47
2019-04-16T16:10:54.940Z,37.45
2019-04-16T16:13:26.499Z,38.11
2019-04-16T16:15:53.383Z,38.76
2019-04-16T16:18:21.727Z,38.16
2019-04-16T16:20:49.998Z,37.90
2019-04-16T16:23:18.286Z,38.26
2019-04-16T16:25:46.551Z,37.99
2019-04-16T16:28:14.803Z,37.80
2019-04-16T16:30:43.071Z,38.00
2019-04-16T16:33:11.329Z,38.88
2019-04-16T16:35:39.594Z,38.93
2019-04-16T16:38:08.000Z,38.45
2019-04-16T16:40:36.229Z,38.14
2019-04-16T16:43:07.965Z,38.21
2019-04-16T16:45:52.634Z,38.95
2019-04-16T16:48:22.060Z,39.32
2019-04-16T16:50:51.703Z,38.26
2019-04-16T16:53:37.757Z,37.33
2019-04-16T16:56:07.800Z,38.51
2019-04-16T16:58:37.665Z,38.14
2019-04-16T17:01:23.763Z,37.92
2019-04-16T17:04:05.384Z,38.33
2019-04-16T17:06:33.709Z,37.60
2019-04-16T17:09:01.976Z,37.80
2019-04-16T17:11:30.238Z,38.01
2019-04-16T17:14:01.927Z,37.47
2019-04-16T17:16:28.511Z,38.10
2019-04-16T17:18:56.820Z,39.08
2019-04-16T17:21:25.087Z,37.62
2019-04-16T17:23:53.796Z,37.81
2019-04-16T17:26:22.117Z,37.95
2019-04-16T17:28:50.394Z,38.10
2019-04-16T17:31:18.728Z,38.08
2019-04-16T17:33:46.992Z,39.45
2019-04-16T17:36:15.269Z,38.80
2019-04-16T17:38:43.600Z,39.14
2019-04-16T17:41:13.526Z,39.34
2019-04-16T17:43:59.822Z,39.63
2019-04-16T17:46:24.807Z,39.13
2019-04-16T17:48:57.804Z,39.48
2019-04-16T17:51:33.765Z,40.16
2019-04-16T17:54:03.668Z,39.57
2019-04-16T17:56:39.523Z,39.55
2019-04-16T17:59:09.445Z,41.03
2019-04-16T18:01:51.391Z,40.80
2019-04-16T18:04:26.993Z,41.02
2019-04-16T18:07:12.762Z,41.25
2019-04-16T18:09:45.227Z,40.82
2019-04-16T18:12:26.993Z,41.08
2019-04-16T18:14:59.723Z,41.97
2019-04-16T18:17:29.689Z,42.72
2019-04-16T18:20:15.498Z,41.47
2019-04-16T18:22:57.126Z,41.22
2019-04-16T18:25:27.158Z,42.77
2019-04-16T18:28:04.376Z,42.79
2019-04-16T18:30:46.759Z,42.49
2019-04-16T18:33:31.549Z,42.67
2019-04-16T18:36:07.259Z,43.20
2019-04-16T18:38:40.162Z,43.67
2019-04-16T18:41:12.716Z,43.75
2019-04-16T18:43:46.420Z,44.26
2019-04-16T18:46:27.023Z,44.51
2019-04-16T18:49:17.299Z,44.63
2019-04-16T18:51:44.458Z,44.89
2019-04-16T18:54:15.045Z,45.49
2019-04-16T18:56:42.730Z,45.96
2019-04-16T18:59:11.088Z,47.40
2019-04-16T19:01:40.985Z,47.20
2019-04-16T19:04:09.427Z,47.67
2019-04-16T19:06:37.717Z,49.00
2019-04-16T19:09:07.255Z,49.05
2019-04-16T19:11:35.535Z,49.30
2019-04-16T19:14:03.805Z,48.69
2019-04-16T19:16:32.081Z,48.81
2019-04-16T19:19:00.346Z,49.44
2019-04-16T19:21:28.620Z,50.37
2019-04-16T19:23:56.915Z,51.09
2019-04-16T19:26:25.198Z,52.39
2019-04-16T19:28:53.610Z,53.97
2019-04-16T19:31:23.141Z,54.38
2019-04-16T19:33:52.326Z,54.50
2019-04-16T19:36:24.717Z,55.37
2019-04-16T19:38:50.785Z,56.02
2019-04-16T19:41:23.330Z,56.24
2019-04-16T19:43:49.072Z,56.51
2019-04-16T19:46:17.360Z,56.52
2019-04-16T19:48:45.659Z,58.40
2019-04-16T19:51:13.953Z,60.70
2019-04-16T19:53:44.652Z,63.12
2019-04-16T19:56:15.594Z,63.90
2019-04-16T19:58:44.229Z,64.54
2019-04-16T20:01:13.482Z,62.83
2019-04-16T20:03:43.553Z,61.40
2019-04-16T20:06:11.914Z,58.87
2019-04-16T20:08:40.183Z,58.90
2019-04-16T20:11:08.466Z,58.88
2019-04-16T20:13:36.735Z,58.99
2019-04-16T20:16:05.019Z,58.87
2019-04-16T20:18:33.291Z,59.35
2019-04-16T20:21:02.238Z,60.01
2019-04-16T20:23:30.609Z,60.60
2019-04-16T20:26:00.080Z,61.49
2019-04-16T20:28:28.906Z,62.24
2019-04-16T20:31:01.920Z,62.77
2019-04-16T20:33:27.223Z,63.56
2019-04-16T20:35:55.489Z,64.24
2019-04-16T20:38:29.075Z,64.55
2019-04-16T20:40:53.770Z,65.07
2019-04-16T20:43:22.032Z,65.57
2019-04-16T20:45:50.313Z,65.84
2019-04-16T20:48:18.577Z,65.97
2019-04-16T20:50:46.910Z,66.24
2019-04-16T20:53:15.203Z,65.91
2019-04-16T20:55:47.066Z,65.89
2019-04-16T20:58:14.937Z,66.13
2019-04-16T21:00:44.881Z,67.05
2019-04-16T21:03:21.953Z,67.03
2019-04-16T21:05:57.399Z,67.64
2019-04-16T21:08:13.199Z,67.84
2019-04-16T21:10:41.477Z,68.24
2019-04-16T21:13:09.759Z,68.13
2019-04-16T21:15:38.048Z,68.40
2019-04-16T21:18:10.491Z,68.28
2019-04-16T21:20:36.357Z,68.59
2019-04-16T21:23:05.051Z,68.82
2019-04-16T21:25:33.288Z,68.28
2019-04-16T21:28:06.276Z,67.81
2019-04-16T21:30:34.721Z,68.74
2019-04-16T21:33:07.420Z,68.83
2019-04-16T21:35:46.389Z,69.25
2019-04-16T21:38:16.319Z,69.54
2019-04-16T21:40:44.580Z,67.85
2019-04-16T21:43:12.864Z,67.55
2019-04-16T21:45:41.181Z,68.38
2019-04-16T21:48:12.348Z,67.63
2019-04-16T21:50:39.395Z,68.14
2019-04-16T21:53:07.809Z,69.39
2019-04-16T21:55:36.273Z,70.55
2019-04-16T21:58:04.557Z,69.98
2019-04-16T22:00:34.629Z,68.97
2019-04-16T22:03:09.148Z,69.34
2019-04-16T22:05:34.587Z,68.38
2019-04-16T22:08:02.908Z,69.27
2019-04-16T22:10:31.243Z,67.80
2019-04-16T22:12:59.606Z,67.49
2019-04-16T22:15:27.816Z,66.97
2019-04-16T22:17:56.070Z,66.63
2019-04-16T22:20:24.330Z,66.83
2019-04-16T22:22:52.579Z,66.54
2019-04-16T22:25:23.696Z,66.92
2019-04-16T22:27:50.836Z,67.25
2019-04-16T22:30:20.113Z,67.34
2019-04-16T22:32:48.475Z,67.22
2019-04-16T22:35:16.750Z,66.40
2019-04-16T22:37:45.024Z,67.12
2019-04-16T22:40:31.265Z,67.45
2019-04-16T22:43:16.303Z,68.34
2019-04-16T22:45:58.154Z,67.97
2019-04-16T22:48:26.430Z,68.22
2019-04-16T22:50:54.674Z,67.54
2019-04-16T22:53:22.929Z,67.61
2019-04-16T22:55:56.496Z,67.42
2019-04-16T22:58:24.814Z,67.68
2019-04-16T23:01:03.594Z,67.66
2019-04-16T23:03:31.877Z,67.44
2019-04-16T23:06:00.999Z,67.87
2019-04-16T23:08:30.152Z,68.03
2019-04-16T23:10:58.560Z,67.78
2019-04-16T23:13:29.605Z,67.61
2019-04-16T23:15:57.065Z,67.59
2019-04-16T23:18:25.302Z,68.39
2019-04-16T23:20:53.593Z,68.75
2019-04-16T23:23:21.878Z,68.21
2019-04-16T23:25:50.148Z,68.21
2019-04-16T23:28:19.743Z,68.18
2019-04-16T23:30:51.128Z,68.30
2019-04-16T23:33:17.937Z,68.39
2019-04-16T23:35:46.225Z,68.16
2019-04-16T23:38:14.506Z,68.46
2019-04-16T23:40:43.932Z,68.83
2019-04-16T23:43:23.303Z,68.19
2019-04-16T23:45:56.248Z,68.28
2019-04-16T23:48:37.925Z,68.23
2019-04-16T23:51:28.783Z,68.30
2019-04-16T23:53:57.867Z,69.15
2019-04-16T23:56:28.060Z,68.81
2019-04-16T23:59:02.568Z,70.19
